createdAt,value
2023-04-14T00:01:55.398Z,0
2023-04-14T00:04:21.497Z,0
2023-04-14T00:06:47.596Z,0
2023-04-14T00:09:13.693Z,0
2023-04-14T00:11:39.779Z,0
2023-04-14T00:14:06.135Z,0
2023-04-14T00:16:30.978Z,0
2023-04-14T00:18:57.090Z,0
2023-04-14T00:21:23.197Z,0
2023-04-14T00:23:49.291Z,0
2023-04-14T00:26:15.382Z,0
2023-04-14T00:28:41.492Z,0
2023-04-14T00:31:07.560Z,0
2023-04-14T00:33:33.680Z,0
2023-04-14T00:35:59.750Z,0
2023-04-14T00:38:25.847Z,0
2023-04-14T00:40:51.942Z,0
2023-04-14T00:43:18.034Z,0
2023-04-14T00:45:44.220Z,0
2023-04-14T00:48:10.229Z,0
2023-04-14T00:50:36.891Z,0
2023-04-14T00:53:02.416Z,0
2023-04-14T00:55:28.520Z,0
2023-04-14T00:57:54.616Z,0
2023-04-14T01:00:19.737Z,0
2023-04-14T01:02:45.813Z,0
2023-04-14T01:05:11.916Z,0
2023-04-14T01:07:38.024Z,0
2023-04-14T01:10:04.095Z,0
2023-04-14T01:12:30.189Z,0
2023-04-14T01:14:56.294Z,0
2023-04-14T01:17:22.430Z,0
2023-04-14T01:19:48.472Z,0
2023-04-14T01:22:15.799Z,0
2023-04-14T01:24:55.685Z,0
2023-04-14T01:27:06.785Z,0
2023-04-14T01:29:32.862Z,0
2023-04-14T01:32:00.204Z,0
2023-04-14T01:34:25.065Z,0
2023-04-14T01:36:50.165Z,0
2023-04-14T01:39:16.265Z,0
2023-04-14T01:41:42.348Z,0
2023-04-14T01:44:08.457Z,0
2023-04-14T01:46:34.569Z,0
2023-04-14T01:49:00.648Z,0
2023-04-14T01:51:26.749Z,0
2023-04-14T01:53:52.882Z,0
2023-04-14T01:56:18.939Z,0
2023-04-14T01:58:45.015Z,0
2023-04-14T02:01:11.131Z,0
2023-04-14T02:03:37.227Z,0
2023-04-14T02:06:03.334Z,0
2023-04-14T02:08:28.441Z,0
2023-04-14T02:10:54.520Z,0
2023-04-14T02:13:20.660Z,0
2023-04-14T02:15:46.711Z,0
2023-04-14T02:18:12.814Z,0
2023-04-14T02:20:38.918Z,0
2023-04-14T02:23:05.007Z,0
2023-04-14T02:25:31.082Z,0
2023-04-14T02:27:57.181Z,0
2023-04-14T02:30:23.355Z,0
2023-04-14T02:32:49.387Z,0
2023-04-14T02:35:15.475Z,0
2023-04-14T02:37:41.575Z,0
2023-04-14T02:40:06.692Z,0
2023-04-14T02:42:32.780Z,0
2023-04-14T02:44:58.867Z,0
2023-04-14T02:47:24.974Z,0
2023-04-14T02:52:17.152Z,0
2023-04-14T02:54:43.273Z,0
2023-04-14T02:57:09.354Z,0
2023-04-14T02:59:35.486Z,0
2023-04-14T03:02:01.577Z,0
2023-04-14T03:04:27.689Z,0
2023-04-14T03:06:53.802Z,0
2023-04-14T03:09:19.856Z,0
2023-04-14T03:11:44.940Z,0
2023-04-14T03:14:11.055Z,0
2023-04-14T03:16:37.134Z,0
2023-04-14T03:19:03.243Z,0
2023-04-14T03:21:29.334Z,0
2023-04-14T03:23:55.418Z,0
2023-04-14T03:26:21.513Z,0
2023-04-14T03:28:47.623Z,0
2023-04-14T03:31:13.718Z,0
2023-04-14T03:33:39.786Z,0
2023-04-14T03:36:05.894Z,0
2023-04-14T03:38:31.997Z,0
2023-04-14T03:40:58.089Z,0
2023-04-14T03:43:23.211Z,0
2023-04-14T03:45:49.330Z,0
2023-04-14T03:48:15.398Z,0
2023-04-14T03:50:41.491Z,0
2023-04-14T03:53:07.585Z,0
2023-04-14T03:55:33.671Z,0
2023-04-14T03:57:59.779Z,0
2023-04-14T04:00:25.852Z,0
2023-04-14T04:02:51.958Z,0
2023-04-14T04:05:18.061Z,0
2023-04-14T04:07:44.160Z,0
2023-04-14T04:10:10.253Z,0
2023-04-14T04:12:36.335Z,4
2023-04-14T04:15:01.468Z,4
2023-04-14T04:17:27.572Z,8
2023-04-14T04:19:53.671Z,12
2023-04-14T04:22:19.744Z,12
2023-04-14T04:24:45.836Z,24
2023-04-14T04:27:11.941Z,32
2023-04-14T04:29:38.075Z,48
2023-04-14T04:32:04.125Z,60
2023-04-14T04:34:30.211Z,80
2023-04-14T04:36:56.331Z,100
2023-04-14T04:39:22.426Z,116
2023-04-14T04:41:48.522Z,136
2023-04-14T04:44:14.601Z,160
2023-04-14T04:46:39.725Z,196
2023-04-14T04:49:05.832Z,236
2023-04-14T04:51:31.905Z,269
2023-04-14T04:53:58.012Z,305
2023-04-14T04:56:24.109Z,345
2023-04-14T04:58:50.204Z,381
2023-04-14T05:01:16.294Z,397
2023-04-14T05:03:42.383Z,441
2023-04-14T05:06:08.479Z,473
2023-04-14T05:08:34.586Z,509
2023-04-14T05:11:00.663Z,534
2023-04-14T05:13:26.826Z,558
2023-04-14T05:15:52.923Z,586
2023-04-14T05:18:18.165Z,626
2023-04-14T05:20:44.110Z,670
2023-04-14T05:23:10.225Z,718
2023-04-14T05:25:36.420Z,779
2023-04-14T05:28:02.464Z,879
2023-04-14T05:30:28.558Z,971
2023-04-14T05:32:54.605Z,955
2023-04-14T05:35:20.659Z,1024
2023-04-14T05:37:46.771Z,1148
2023-04-14T05:40:12.940Z,1132
2023-04-14T05:42:38.944Z,1357
2023-04-14T05:45:05.064Z,1272
2023-04-14T05:47:30.158Z,1630
2023-04-14T05:49:56.321Z,1710
2023-04-14T05:52:22.364Z,1819
2023-04-14T05:54:48.463Z,1919
2023-04-14T05:57:14.575Z,2060
2023-04-14T05:59:40.621Z,2076
2023-04-14T06:02:06.721Z,2112
2023-04-14T06:04:32.854Z,2152
2023-04-14T06:06:58.918Z,2064
2023-04-14T06:09:25.006Z,2084
2023-04-14T06:11:51.151Z,2389
2023-04-14T06:14:17.353Z,2674
2023-04-14T06:16:43.458Z,3084
2023-04-14T06:19:08.488Z,3232
2023-04-14T06:21:34.616Z,2875
2023-04-14T06:24:00.631Z,2730
2023-04-14T06:26:26.748Z,3236
2023-04-14T06:28:52.801Z,2782
2023-04-14T06:31:18.893Z,3353
2023-04-14T06:33:45.044Z,3228
2023-04-14T06:36:11.125Z,3409
2023-04-14T06:38:37.170Z,3333
2023-04-14T06:41:03.269Z,3710
2023-04-14T06:43:29.416Z,4124
2023-04-14T06:45:55.486Z,3806
2023-04-14T06:48:21.554Z,3822
2023-04-14T06:50:47.647Z,4385
2023-04-14T06:55:39.862Z,4501
2023-04-14T06:58:05.051Z,4939
2023-04-14T07:00:31.045Z,4437
2023-04-14T07:02:57.141Z,2810
2023-04-14T07:05:23.264Z,2437
2023-04-14T07:07:49.340Z,2313
2023-04-14T07:10:15.539Z,2268
2023-04-14T07:12:41.562Z,2413
2023-04-14T07:15:07.640Z,2670
2023-04-14T07:17:33.725Z,2975
2023-04-14T07:19:59.953Z,3248
2023-04-14T07:22:25.972Z,3513
2023-04-14T07:24:52.014Z,3951
2023-04-14T07:27:18.099Z,4280
2023-04-14T07:29:43.205Z,4987
2023-04-14T07:32:09.301Z,5481
2023-04-14T07:34:35.431Z,6380
2023-04-14T07:37:01.499Z,6388
2023-04-14T07:39:27.602Z,6107
2023-04-14T07:41:53.690Z,5605
2023-04-14T07:44:20.039Z,5987
2023-04-14T07:46:45.877Z,6304
2023-04-14T07:49:12.322Z,6095
2023-04-14T07:51:38.472Z,5433
2023-04-14T07:54:04.320Z,5240
2023-04-14T07:56:30.347Z,4690
2023-04-14T07:58:56.561Z,3983
2023-04-14T08:01:22.536Z,3361
2023-04-14T08:03:48.751Z,2843
2023-04-14T08:06:14.723Z,2710
2023-04-14T08:08:40.927Z,2598
2023-04-14T08:11:07.122Z,2204
2023-04-14T08:13:33.350Z,2152
2023-04-14T08:15:59.215Z,2128
2023-04-14T08:18:25.433Z,2152
2023-04-14T08:20:51.509Z,2120
2023-04-14T08:23:17.519Z,2160
2023-04-14T08:25:43.615Z,2031
2023-04-14T08:28:09.684Z,2023
2023-04-14T08:30:35.771Z,2011
2023-04-14T08:33:01.902Z,2023
2023-04-14T08:35:27.930Z,2019
2023-04-14T08:37:54.180Z,2023
2023-04-14T08:40:19.209Z,2048
2023-04-14T08:42:45.354Z,2068
2023-04-14T08:45:11.319Z,2084
2023-04-14T08:47:37.446Z,2112
2023-04-14T08:50:03.564Z,2140
2023-04-14T08:52:29.636Z,2188
2023-04-14T08:54:55.716Z,2116
2023-04-14T08:57:21.833Z,2132
2023-04-14T08:59:48.003Z,2156
2023-04-14T09:02:14.109Z,2196
2023-04-14T09:04:40.213Z,2268
2023-04-14T09:07:06.185Z,2305
2023-04-14T09:09:32.301Z,2228
2023-04-14T09:11:57.415Z,2240
2023-04-14T09:14:23.488Z,2353
2023-04-14T09:16:49.573Z,2369
2023-04-14T09:19:15.742Z,2570
2023-04-14T09:21:41.936Z,2549
2023-04-14T09:24:08.048Z,2357
2023-04-14T09:26:34.085Z,2477
2023-04-14T09:29:00.263Z,2722
2023-04-14T09:31:26.348Z,2598
2023-04-14T09:33:52.443Z,2847
2023-04-14T09:36:18.444Z,2618
2023-04-14T09:38:44.441Z,2947
2023-04-14T09:41:10.737Z,2983
2023-04-14T09:43:35.855Z,2602
2023-04-14T09:46:01.893Z,3031
2023-04-14T09:48:28.047Z,3333
2023-04-14T09:50:54.121Z,3312
2023-04-14T09:53:20.039Z,3304
2023-04-14T09:55:46.278Z,3180
2023-04-14T09:58:12.347Z,3228
2023-04-14T10:00:38.558Z,2790
2023-04-14T10:03:04.421Z,2875
2023-04-14T10:05:30.615Z,3421
2023-04-14T10:07:56.766Z,3581
2023-04-14T10:10:22.830Z,3324
2023-04-14T10:12:48.795Z,3686
2023-04-14T10:15:13.903Z,3324
2023-04-14T10:17:40.000Z,3043
2023-04-14T10:20:06.122Z,3063
2023-04-14T10:22:32.197Z,3224
2023-04-14T10:24:58.291Z,3300
2023-04-14T10:27:24.398Z,4063
2023-04-14T10:29:50.501Z,5140
2023-04-14T10:32:16.569Z,4875
2023-04-14T10:34:42.686Z,3943
2023-04-14T10:37:08.758Z,3128
2023-04-14T10:39:34.869Z,3088
2023-04-14T10:42:00.958Z,3361
2023-04-14T10:44:27.062Z,3525
2023-04-14T10:46:52.162Z,4168
2023-04-14T10:49:18.289Z,5790
2023-04-14T10:51:44.376Z,5581
2023-04-14T10:54:10.509Z,4983
2023-04-14T10:56:36.645Z,4160
2023-04-14T10:59:02.668Z,4561
2023-04-14T11:01:28.745Z,4939
2023-04-14T11:03:54.841Z,4573
2023-04-14T11:06:20.929Z,4842
2023-04-14T11:08:47.015Z,4786
2023-04-14T11:11:13.131Z,5457
2023-04-14T11:13:39.215Z,6449
2023-04-14T11:16:05.314Z,6252
2023-04-14T11:18:30.435Z,6003
2023-04-14T11:20:56.529Z,5870
2023-04-14T11:23:22.624Z,7967
2023-04-14T11:25:48.716Z,7613
2023-04-14T11:28:14.805Z,7882
2023-04-14T11:30:40.906Z,7987
2023-04-14T11:33:06.998Z,8549
2023-04-14T11:35:33.100Z,7750
2023-04-14T11:37:59.224Z,6260
2023-04-14T11:40:25.331Z,5164
2023-04-14T11:42:51.382Z,5180
2023-04-14T11:45:17.471Z,5344
2023-04-14T11:47:43.566Z,5690
2023-04-14T11:50:08.732Z,6280
2023-04-14T11:52:34.808Z,7730
2023-04-14T11:55:00.911Z,8605
2023-04-14T11:57:27.102Z,7890
2023-04-14T11:59:53.225Z,7734
2023-04-14T12:02:19.157Z,8485
2023-04-14T12:04:45.396Z,8593
2023-04-14T12:07:11.361Z,7838
2023-04-14T12:09:37.567Z,6931
2023-04-14T12:12:03.575Z,5224
2023-04-14T12:14:29.814Z,4698
2023-04-14T12:16:55.965Z,4348
2023-04-14T12:19:22.070Z,4421
2023-04-14T12:21:46.974Z,4324
2023-04-14T12:24:13.190Z,4618
2023-04-14T12:26:39.135Z,4782
2023-04-14T12:29:05.389Z,5180
2023-04-14T12:31:31.488Z,5674
2023-04-14T12:33:57.465Z,6810
2023-04-14T12:36:23.684Z,6384
2023-04-14T12:38:49.612Z,6003
2023-04-14T12:41:15.879Z,5509
2023-04-14T12:43:41.994Z,4007
2023-04-14T12:46:08.028Z,5035
2023-04-14T12:48:34.118Z,3425
2023-04-14T12:51:00.268Z,3521
2023-04-14T12:53:25.431Z,4248
2023-04-14T12:55:51.518Z,61199
2023-04-14T12:58:17.581Z,8292
2023-04-14T13:00:43.577Z,4730
2023-04-14T13:03:09.784Z,5023
2023-04-14T13:05:35.899Z,4951
2023-04-14T13:08:01.978Z,5389
2023-04-14T13:10:27.997Z,5609
2023-04-14T13:12:54.186Z,6003
2023-04-14T13:15:20.207Z,6826
2023-04-14T13:17:46.245Z,7469
2023-04-14T13:20:12.302Z,8055
2023-04-14T13:22:38.539Z,10059
2023-04-14T13:25:03.627Z,11677
2023-04-14T13:27:29.759Z,12283
2023-04-14T13:29:55.817Z,10561
2023-04-14T13:32:21.759Z,9999
2023-04-14T13:34:48.007Z,9344
2023-04-14T13:37:14.173Z,9408
2023-04-14T13:39:40.215Z,10075
2023-04-14T13:42:06.266Z,7991
2023-04-14T13:44:32.353Z,9035
2023-04-14T13:46:58.578Z,10123
2023-04-14T13:49:24.648Z,60074
2023-04-14T13:51:50.667Z,8485
2023-04-14T13:54:16.788Z,9802
2023-04-14T13:56:42.895Z,7979
2023-04-14T13:59:08.006Z,8673
2023-04-14T14:01:34.148Z,8625
2023-04-14T14:04:00.027Z,18793
2023-04-14T14:06:26.316Z,18126
2023-04-14T14:08:52.224Z,70258
2023-04-14T14:11:18.498Z,9404
2023-04-14T14:13:44.510Z,11942
2023-04-14T14:16:10.676Z,92714
2023-04-14T14:18:36.812Z,70997
2023-04-14T14:21:02.832Z,72956
2023-04-14T14:23:28.929Z,66564
2023-04-14T14:25:55.022Z,63993
2023-04-14T14:28:21.157Z,63801
2023-04-14T14:30:46.084Z,67559
2023-04-14T14:33:12.359Z,69134
2023-04-14T14:35:38.430Z,68812
2023-04-14T14:38:04.526Z,66210
2023-04-14T14:40:30.609Z,61423
2023-04-14T14:42:56.726Z,65825
2023-04-14T14:45:22.824Z,62933
2023-04-14T14:47:48.738Z,64893
2023-04-14T14:50:14.850Z,62580
2023-04-14T14:52:41.008Z,11468
2023-04-14T14:55:07.169Z,61070
2023-04-14T14:57:33.272Z,54902
2023-04-14T14:59:59.410Z,53488
2023-04-14T15:02:24.315Z,54613
2023-04-14T15:04:50.574Z,63479
2023-04-14T15:07:16.488Z,61102
2023-04-14T15:09:42.694Z,61391
2023-04-14T15:12:08.897Z,60749
2023-04-14T15:14:34.939Z,58532
2023-04-14T15:17:01.100Z,56444
2023-04-14T15:19:27.175Z,55030
2023-04-14T15:21:53.272Z,51175
2023-04-14T15:24:19.418Z,50983
2023-04-14T15:26:45.469Z,49633
2023-04-14T15:29:11.632Z,44911
2023-04-14T15:31:37.967Z,42566
2023-04-14T15:34:03.773Z,29266
2023-04-14T15:36:29.838Z,17090
2023-04-14T15:38:55.982Z,14938
2023-04-14T15:41:22.087Z,19082
2023-04-14T15:43:47.977Z,10324
2023-04-14T15:46:14.091Z,9794
2023-04-14T15:48:40.338Z,9175
2023-04-14T15:51:06.430Z,8870
2023-04-14T15:53:32.359Z,8862
2023-04-14T15:55:58.618Z,7481
2023-04-14T15:58:24.718Z,8469
2023-04-14T16:00:50.621Z,8444
2023-04-14T16:03:15.962Z,8577
2023-04-14T16:05:42.017Z,8561
2023-04-14T16:08:08.057Z,14649
2023-04-14T16:10:34.191Z,26439
2023-04-14T16:13:00.321Z,22616
2023-04-14T16:15:26.363Z,9794
2023-04-14T16:17:52.562Z,9087
2023-04-14T16:20:18.449Z,23194
2023-04-14T16:22:44.731Z,23580
2023-04-14T16:25:10.806Z,23355
2023-04-14T16:27:36.868Z,22102
2023-04-14T16:30:02.792Z,20014
2023-04-14T16:32:29.063Z,21010
2023-04-14T16:34:54.178Z,21684
2023-04-14T16:37:20.281Z,20592
2023-04-14T16:39:46.368Z,19243
2023-04-14T16:42:12.417Z,17990
2023-04-14T16:44:38.564Z,17283
2023-04-14T16:47:04.483Z,17701
2023-04-14T16:49:30.711Z,16191
2023-04-14T16:51:56.804Z,14456
2023-04-14T16:54:22.758Z,13781
2023-04-14T16:56:48.954Z,12721
2023-04-14T16:59:15.345Z,11693
2023-04-14T17:01:41.189Z,11340
2023-04-14T17:04:07.119Z,10782
2023-04-14T17:06:33.210Z,10063
2023-04-14T17:08:59.454Z,8521
2023-04-14T17:11:25.557Z,7469
2023-04-14T17:13:51.523Z,7380
2023-04-14T17:16:17.754Z,7192
2023-04-14T17:18:43.860Z,2758
2023-04-14T17:21:09.941Z,1955
2023-04-14T17:23:36.085Z,1770
2023-04-14T17:26:02.172Z,1678
2023-04-14T17:28:28.071Z,1602
2023-04-14T17:30:54.158Z,1517
2023-04-14T17:33:19.445Z,1477
2023-04-14T17:35:45.450Z,1413
2023-04-14T17:38:11.666Z,1337
2023-04-14T17:40:37.738Z,1268
2023-04-14T17:43:03.797Z,1076
2023-04-14T17:45:29.886Z,975
2023-04-14T17:47:55.980Z,919
2023-04-14T17:50:22.099Z,807
2023-04-14T17:52:48.185Z,650
2023-04-14T17:55:14.279Z,542
2023-04-14T17:57:40.242Z,505
2023-04-14T18:00:06.310Z,413
2023-04-14T18:02:32.505Z,385
2023-04-14T18:04:57.642Z,345
2023-04-14T18:07:23.680Z,265
2023-04-14T18:09:49.896Z,204
2023-04-14T18:12:15.886Z,148
2023-04-14T18:14:41.902Z,116
2023-04-14T18:17:08.023Z,88
2023-04-14T18:19:34.291Z,68
2023-04-14T18:22:00.213Z,48
2023-04-14T18:24:26.376Z,32
2023-04-14T18:26:52.390Z,24
2023-04-14T18:29:18.541Z,16
2023-04-14T18:31:44.569Z,12
2023-04-14T18:34:10.829Z,8
2023-04-14T18:36:35.840Z,4
2023-04-14T18:39:02.019Z,4
2023-04-14T18:41:28.066Z,4
2023-04-14T18:43:54.222Z,0
2023-04-14T18:46:20.179Z,0
2023-04-14T18:48:46.283Z,0
2023-04-14T18:51:12.366Z,0
2023-04-14T18:53:38.452Z,0
2023-04-14T18:56:04.616Z,0
2023-04-14T18:58:30.638Z,0
2023-04-14T19:00:56.733Z,0
2023-04-14T19:03:22.831Z,0
2023-04-14T19:05:48.926Z,0
2023-04-14T19:08:14.115Z,0
2023-04-14T19:10:40.258Z,0
2023-04-14T19:13:06.236Z,0
2023-04-14T19:15:32.471Z,0
2023-04-14T19:17:58.430Z,0
2023-04-14T19:20:24.677Z,0
2023-04-14T19:22:50.596Z,0
2023-04-14T19:25:16.747Z,0
2023-04-14T19:27:42.809Z,0
2023-04-14T19:30:08.880Z,0
2023-04-14T19:32:34.993Z,0
2023-04-14T19:35:01.086Z,0
2023-04-14T19:37:27.174Z,0
2023-04-14T19:39:52.338Z,0
2023-04-14T19:42:18.376Z,0
2023-04-14T19:44:44.479Z,0
2023-04-14T19:47:10.562Z,0
2023-04-14T19:49:36.755Z,0
2023-04-14T19:52:02.837Z,0
2023-04-14T19:54:28.869Z,0
2023-04-14T19:56:54.955Z,0
2023-04-14T19:59:21.092Z,0
2023-04-14T20:01:47.155Z,0
2023-04-14T20:04:13.348Z,0
2023-04-14T20:06:39.438Z,0
2023-04-14T20:09:05.476Z,0
2023-04-14T20:11:30.644Z,0
2023-04-14T20:13:56.636Z,0
2023-04-14T20:16:22.744Z,0
2023-04-14T20:18:48.967Z,0
2023-04-14T20:21:14.980Z,0
2023-04-14T20:23:41.118Z,0
2023-04-14T20:26:07.132Z,0
2023-04-14T20:28:33.225Z,0
2023-04-14T20:30:59.383Z,0
2023-04-14T20:33:25.440Z,0
2023-04-14T20:35:51.517Z,0
2023-04-14T20:38:17.602Z,0
2023-04-14T20:40:43.713Z,0
2023-04-14T20:43:09.822Z,0
2023-04-14T20:45:35.905Z,0
2023-04-14T20:48:02.026Z,0
2023-04-14T20:50:28.104Z,0
2023-04-14T20:52:54.176Z,0
2023-04-14T20:55:20.391Z,0
2023-04-14T20:57:45.386Z,0
2023-04-14T21:00:11.515Z,0
2023-04-14T21:02:37.575Z,0
2023-04-14T21:05:03.679Z,0
2023-04-14T21:07:29.775Z,0
2023-04-14T21:09:55.876Z,0
2023-04-14T21:12:21.978Z,0
2023-04-14T21:15:00.381Z,0
2023-04-14T21:17:14.141Z,0
2023-04-14T21:19:40.362Z,0
2023-04-14T21:22:06.436Z,0
2023-04-14T21:24:32.465Z,0
2023-04-14T21:26:58.532Z,0
2023-04-14T21:29:24.637Z,0
2023-04-14T21:31:50.728Z,0
2023-04-14T21:34:16.844Z,0
2023-04-14T21:36:42.913Z,0
2023-04-14T21:39:09.018Z,0
2023-04-14T21:41:35.231Z,0
2023-04-14T21:44:00.215Z,0
2023-04-14T21:46:26.305Z,0
2023-04-14T21:48:52.512Z,0
2023-04-14T21:51:18.548Z,0
2023-04-14T21:53:44.639Z,0
2023-04-14T21:56:10.790Z,0
2023-04-14T21:58:36.792Z,0
2023-04-14T22:01:02.889Z,0
2023-04-14T22:03:29.006Z,0
2023-04-14T22:05:55.084Z,0
2023-04-14T22:08:20.193Z,0
2023-04-14T22:10:46.331Z,0
2023-04-14T22:13:12.390Z,0
2023-04-14T22:15:38.488Z,0
2023-04-14T22:18:04.609Z,0
2023-04-14T22:20:30.768Z,0
2023-04-14T22:22:56.785Z,0
2023-04-14T22:25:22.885Z,0
2023-04-14T22:27:48.971Z,0
2023-04-14T22:30:15.069Z,0
2023-04-14T22:32:41.269Z,0
2023-04-14T22:35:07.247Z,0
2023-04-14T22:37:33.336Z,0
2023-04-14T22:39:58.467Z,0
2023-04-14T22:42:24.649Z,0
2023-04-14T22:44:50.647Z,0
2023-04-14T22:47:16.782Z,0
2023-04-14T22:49:42.833Z,0
2023-04-14T22:52:08.925Z,0
2023-04-14T22:54:35.058Z,0
2023-04-14T22:57:01.122Z,0
2023-04-14T22:59:27.250Z,0
2023-04-14T23:01:53.315Z,0
2023-04-14T23:04:19.413Z,0
2023-04-14T23:06:45.551Z,0
2023-04-14T23:09:11.610Z,0
2023-04-14T23:11:36.720Z,0
2023-04-14T23:14:02.795Z,0
2023-04-14T23:16:28.913Z,0
2023-04-14T23:18:55.057Z,0
2023-04-14T23:21:21.103Z,0
2023-04-14T23:23:47.184Z,0
2023-04-14T23:26:13.285Z,0
2023-04-14T23:28:39.386Z,0
2023-04-14T23:31:05.485Z,0
2023-04-14T23:33:31.569Z,0
2023-04-14T23:35:57.663Z,0
2023-04-14T23:38:23.772Z,0
2023-04-14T23:40:49.869Z,0
2023-04-14T23:43:14.967Z,0
2023-04-14T23:45:41.057Z,0
2023-04-14T23:48:07.170Z,0
2023-04-14T23:50:33.268Z,0
2023-04-14T23:52:59.354Z,0
2023-04-14T23:55:25.443Z,0
